Time;durP1;ratioP1;P1;durP2;ratioP2;P2;SDS_P1;SDS_P2;PMS_P1;PMS_P2;Temp;Humidity;BMP_temperature;BMP_pressure;BME280_temperature;BME280_humidity;BME280_pressure;Samples;Min_cycle;Max_cycle;Signal;HPM_P1;HPM_P2
2022/06/18 00:00:48;;;;;;;3.97;3.40;;;;;;;22.82;56.98;101660.06;5032838;28;20112;-64
2022/06/18 00:03:14;;;;;;;6.88;3.10;;;;;;;22.80;57.09;101660.34;5032800;28;20435;-64
2022/06/18 00:05:41;;;;;;;3.17;2.88;;;;;;;22.75;57.32;101665.72;5032520;28;20052;-64
2022/06/18 00:08:14;;;;;;;7.03;3.30;;;;;;;22.74;57.39;101674.94;5032700;28;20026;-67
2022/06/18 00:10:40;;;;;;;5.43;3.80;;;;;;;22.70;57.83;101666.50;5031263;28;20095;-67
2022/06/18 00:15:59;;;;;;;5.35;3.83;;;;;;;22.60;58.08;101660.97;5032526;28;20095;-67
2022/06/18 00:18:25;;;;;;;7.90;3.85;;;;;;;22.54;58.82;101662.81;5032436;28;20388;-67
2022/06/18 00:20:51;;;;;;;7.32;4.32;;;;;;;22.52;58.42;101666.88;5032416;28;20025;-68
2022/06/18 00:23:18;;;;;;;9.18;5.03;;;;;;;22.48;58.43;101660.31;5032392;28;20029;-68
2022/06/18 00:25:49;;;;;;;5.97;3.80;;;;;;;22.45;58.90;101658.09;5032387;28;20029;-67
2022/06/18 00:28:27;;;;;;;5.75;3.78;;;;;;;22.38;58.82;101652.06;5031989;28;20029;-68
2022/06/18 00:30:54;;;;;;;7.70;3.72;;;;;;;22.36;59.58;101652.31;5031432;28;20037;-67
2022/06/18 00:33:19;;;;;;;7.22;3.90;;;;;;;22.32;59.29;101653.88;5032370;28;20040;-67
2022/06/18 00:35:47;;;;;;;7.38;4.25;;;;;;;22.31;59.60;101655.78;5032091;28;20388;-67
2022/06/18 00:38:30;;;;;;;8.30;4.05;;;;;;;22.28;59.02;101664.44;5032174;28;20048;-68
2022/06/18 00:40:56;;;;;;;6.50;3.92;;;;;;;22.24;59.88;101657.91;5031879;28;20059;-67
2022/06/18 00:43:49;;;;;;;5.35;3.85;;;;;;;22.24;58.70;101655.19;5031281;28;20484;-67
2022/06/18 00:46:45;;;;;;;5.10;4.20;;;;;;;22.22;59.49;101654.63;5031723;28;20041;-67
2022/06/18 00:49:33;;;;;;;6.80;4.15;;;;;;;22.20;59.11;101650.50;5031866;28;20035;-67
2022/06/18 00:52:20;;;;;;;6.65;4.00;;;;;;;22.12;59.56;101649.03;5031865;28;20060;-64
2022/06/18 00:54:51;;;;;;;8.00;4.05;;;;;;;22.10;60.27;101654.72;5031582;28;20021;-64
2022/06/18 00:57:32;;;;;;;5.82;4.13;;;;;;;22.07;60.34;101654.41;5031797;28;20120;-64
2022/06/18 01:00:20;;;;;;;6.00;3.92;;;;;;;22.03;60.67;101654.09;5031700;28;20431;-64
2022/06/18 01:02:48;;;;;;;8.77;4.10;;;;;;;22.01;61.01;101647.28;5031668;28;20477;-64
2022/06/18 01:05:26;;;;;;;5.70;4.15;;;;;;;21.98;60.77;101640.47;5031771;28;20044;-64
2022/06/18 01:08:13;;;;;;;7.32;4.65;;;;;;;21.96;60.67;101652.66;5031609;28;20036;-64
2022/06/18 01:10:42;;;;;;;6.13;4.20;;;;;;;21.93;61.49;101644.97;5031203;28;20029;-64
2022/06/18 01:13:11;;;;;;;6.93;4.38;;;;;;;21.88;61.75;101641.16;5031373;28;20021;-64
2022/06/18 01:15:37;;;;;;;5.53;4.45;;;;;;;21.86;61.71;101640.56;5031420;28;20065;-64
2022/06/18 01:18:05;;;;;;;9.15;4.78;;;;;;;21.83;62.38;101629.41;5031442;28;20115;-64
2022/06/18 01:20:37;;;;;;;6.22;3.95;;;;;;;21.78;62.32;101629.34;5031270;28;20041;-64
2022/06/18 01:23:19;;;;;;;6.68;4.32;;;;;;;21.80;62.13;101619.88;5031391;28;20554;-64
2022/06/18 01:25:44;;;;;;;6.93;4.82;;;;;;;21.76;62.46;101629.59;5031130;28;20033;-64
2022/06/18 01:28:13;;;;;;;6.82;4.25;;;;;;;21.73;62.49;101630.09;5031180;28;20091;-64
2022/06/18 01:30:39;;;;;;;7.50;4.10;;;;;;;21.70;62.91;101630.59;5031070;28;20538;-64
2022/06/18 01:33:07;;;;;;;6.68;4.13;;;;;;;21.68;63.25;101627.31;5030229;28;20700;-64
2022/06/18 01:35:37;;;;;;;9.23;4.25;;;;;;;21.65;63.09;101625.91;5031135;28;20049;-64
2022/06/18 01:38:04;;;;;;;10.05;4.40;;;;;;;21.60;63.33;101622.31;5030882;28;20465;-64
2022/06/18 01:40:38;;;;;;;12.27;5.85;;;;;;;21.59;63.78;101626.13;5030878;28;20021;-64
2022/06/18 01:43:07;;;;;;;7.95;4.60;;;;;;;21.53;63.66;101633.34;5030764;28;20586;-64
2022/06/18 01:45:35;;;;;;;7.80;5.40;;;;;;;21.50;63.72;101623.00;5029890;28;20033;-64
2022/06/18 01:48:07;;;;;;;8.32;5.43;;;;;;;21.47;63.96;101620.78;5030895;28;20071;-64
2022/06/18 01:50:38;;;;;;;;;;;;;;;21.51;62.09;101632.81;5030354;28;20405;-64
2022/06/18 01:53:15;;;;;;;9.90;5.45;;;;;;;21.44;63.83;101626.72;5030697;28;19991;-64
2022/06/18 01:55:45;;;;;;;7.60;5.40;;;;;;;21.42;64.38;101626.16;5029920;28;20049;-64
2022/06/18 01:58:19;;;;;;;7.05;4.40;;;;;;;21.39;64.20;101619.31;5030627;28;20039;-64
2022/06/18 02:00:49;;;;;;;8.30;4.85;;;;;;;21.39;65.20;101621.22;5030605;28;20033;-63
2022/06/18 02:03:15;;;;;;;8.32;5.35;;;;;;;21.36;64.97;101617.09;5030469;28;20029;-64
2022/06/18 02:05:40;;;;;;;9.02;5.22;;;;;;;21.33;65.29;101608.63;5030520;28;20543;-64
2022/06/18 02:08:09;;;;;;;8.68;4.78;;;;;;;21.22;65.48;101603.06;5030479;28;20388;-64
2022/06/18 02:10:52;;;;;;;7.68;5.10;;;;;;;21.26;64.62;101608.81;5030401;28;20064;-64
2022/06/18 02:13:20;;;;;;;9.43;5.20;;;;;;;21.27;65.55;101610.44;5030323;28;20029;-64
2022/06/18 02:15:46;;;;;;;6.72;5.15;;;;;;;21.26;65.47;101611.50;5030381;28;20481;-64
2022/06/18 02:18:15;;;;;;;7.03;4.82;;;;;;;21.23;65.63;101618.25;5030322;28;20091;-64
2022/06/18 02:20:47;;;;;;;7.65;4.97;;;;;;;21.21;65.43;101614.16;5030218;28;20550;-64
2022/06/18 02:23:13;;;;;;;8.50;5.20;;;;;;;21.21;65.52;101609.53;5030253;28;20029;-63
2022/06/18 02:25:38;;;;;;;9.52;6.05;;;;;;;21.18;65.79;101610.03;5030085;28;20029;-64
2022/06/18 02:28:26;;;;;;;6.78;5.57;;;;;;;21.19;65.04;101602.72;5030024;28;20124;-64
2022/06/18 02:30:56;;;;;;;8.40;5.13;;;;;;;21.15;66.10;101612.44;5029883;28;20060;-64
2022/06/18 02:33:50;;;;;;;8.23;5.13;;;;;;;21.13;65.35;101604.53;5029585;28;20056;-64
2022/06/18 02:36:23;;;;;;;6.60;5.30;;;;;;;21.03;65.89;101588.09;5029375;28;20033;-64
2022/06/18 02:38:55;;;;;;;8.40;5.47;;;;;;;21.06;66.16;101605.78;5030048;28;20044;-64
2022/06/18 02:41:22;;;;;;;10.40;5.95;;;;;;;21.01;66.60;101595.66;5029884;28;20605;-64
2022/06/18 02:43:47;;;;;;;6.97;5.78;;;;;;;21.01;66.78;101607.38;5029736;28;20025;-64
2022/06/18 02:46:13;;;;;;;8.82;5.18;;;;;;;21.01;66.51;101607.38;5029375;28;20516;-63
2022/06/18 02:48:39;;;;;;;8.30;5.85;;;;;;;20.99;66.73;101598.66;5028955;28;20057;-64
2022/06/18 02:51:06;;;;;;;8.55;5.65;;;;;;;20.97;66.83;101606.19;5029336;28;20021;-64
2022/06/18 02:53:32;;;;;;;9.10;6.43;;;;;;;20.97;67.21;101598.06;5029654;28;20053;-64
2022/06/18 02:56:01;;;;;;;11.23;5.97;;;;;;;20.94;67.16;101600.47;5029605;28;20384;-64
2022/06/18 02:58:31;;;;;;;9.80;6.05;;;;;;;20.91;67.32;101603.69;5029548;28;20159;-64
2022/06/18 03:01:00;;;;;;;10.90;6.30;;;;;;;20.91;67.05;101603.69;5029116;28;20396;-64
2022/06/18 03:03:30;;;;;;;11.48;5.68;;;;;;;20.89;67.08;101609.34;5028667;28;20372;-63
2022/06/18 03:05:56;;;;;;;11.50;6.30;;;;;;;20.88;67.35;101610.41;5029425;28;20683;-63
2022/06/18 03:08:23;;;;;;;10.10;6.38;;;;;;;20.86;67.15;101615.25;5029547;28;20116;-64
2022/06/18 03:13:32;;;;;;;12.18;7.05;;;;;;;20.82;67.27;101616.81;5029415;28;20048;-64
2022/06/18 03:15:58;;;;;;;8.38;6.63;;;;;;;20.82;67.65;101619.50;5029098;28;20388;-64
2022/06/18 03:18:28;;;;;;;11.48;6.97;;;;;;;20.78;67.65;101615.66;5029089;28;20037;-64
2022/06/18 03:21:19;;;;;;;10.75;6.68;;;;;;;20.76;67.86;101612.38;5029176;28;20546;-63
2022/06/18 03:23:46;;;;;;;10.03;6.20;;;;;;;20.74;67.90;101617.22;5029192;28;20037;-64
2022/06/18 03:26:13;;;;;;;11.15;6.70;;;;;;;20.72;67.77;101614.78;5029114;28;20036;-64
2022/06/18 03:28:39;;;;;;;10.30;6.50;;;;;;;20.69;67.79;101615.22;5029008;28;20038;-63
2022/06/18 03:31:04;;;;;;;7.28;6.05;;;;;;;20.66;68.07;101615.72;5029260;28;20495;-64
2022/06/18 03:33:30;;;;;;;11.68;7.18;;;;;;;20.67;68.50;101616.53;5028603;28;20037;-64
2022/06/18 03:35:56;;;;;;;13.95;6.78;;;;;;;20.66;68.12;101614.91;5028473;28;20442;-64
2022/06/18 03:38:22;;;;;;;9.23;6.60;;;;;;;20.62;68.35;101630.00;5029039;28;20025;-64
2022/06/18 03:40:51;;;;;;;11.02;7.43;;;;;;;20.61;68.04;101620.25;5029087;28;20543;-64
2022/06/18 03:43:26;;;;;;;10.23;6.57;;;;;;;20.63;68.30;101626.25;5028539;28;20124;-64
2022/06/18 03:45:56;;;;;;;10.88;7.45;;;;;;;20.57;68.24;101626.16;5029037;28;20076;-64
2022/06/18 03:48:31;;;;;;;9.48;6.25;;;;;;;20.57;68.25;101634.28;5028095;28;20571;-64
2022/06/18 03:50:57;;;;;;;20.98;7.20;;;;;;;20.56;68.17;101631.81;5028541;28;20029;-64
2022/06/18 03:53:23;;;;;;;13.40;7.20;;;;;;;20.56;68.16;101629.91;5029087;28;20033;-63
2022/06/18 03:55:49;;;;;;;11.57;7.20;;;;;;;20.60;68.12;101632.16;5028948;28;20477;-64
2022/06/18 03:58:14;;;;;;;8.07;6.40;;;;;;;20.57;68.04;101620.75;5029124;28;20064;-64
2022/06/18 04:00:40;;;;;;;13.18;8.05;;;;;;;20.58;68.11;101621.56;5028981;28;20033;-64
2022/06/18 04:03:05;;;;;;;10.57;7.50;;;;;;;20.59;68.43;101615.06;5028914;28;20535;-64
2022/06/18 04:05:33;;;;;;;11.13;7.15;;;;;;;20.58;68.47;101608.81;5028513;28;20035;-64
2022/06/18 04:07:59;;;;;;;11.43;6.75;;;;;;;20.61;68.86;101614.81;5028781;28;20032;-64
2022/06/18 04:10:24;;;;;;;11.88;7.40;;;;;;;20.62;68.28;101613.75;5028747;28;20038;-64
2022/06/18 04:12:49;;;;;;;12.30;7.63;;;;;;;20.63;68.23;101612.69;5028891;28;20049;-64
2022/06/18 04:15:15;;;;;;;12.02;7.10;;;;;;;20.65;68.33;101605.16;5031819;28;20330;-64
2022/06/18 04:17:42;;;;;;;8.50;6.85;;;;;;;20.67;68.60;101606.56;5032486;28;20124;-64
2022/06/18 04:20:17;;;;;;;14.05;8.00;;;;;;;20.66;68.27;101614.91;5032282;28;20036;-64
2022/06/18 04:22:43;;;;;;;13.00;7.88;;;;;;;20.64;68.82;101598.88;5032408;28;20551;-64
2022/06/18 04:25:08;;;;;;;12.52;8.00;;;;;;;20.72;68.81;101603.94;5032435;28;20124;-64
2022/06/18 04:27:34;;;;;;;12.63;7.97;;;;;;;20.73;68.27;101605.56;5032421;28;20072;-64
2022/06/18 04:29:59;;;;;;;16.35;8.20;;;;;;;20.77;68.28;101600.44;5032234;28;20120;-64
2022/06/18 04:32:24;;;;;;;9.88;7.18;;;;;;;20.81;68.29;101598.91;5032347;28;20037;-63
2022/06/18 04:34:50;;;;;;;12.02;8.32;;;;;;;20.87;68.21;101597.09;5032021;28;20112;-64
2022/06/18 04:37:15;;;;;;;13.20;7.82;;;;;;;20.88;68.18;101602.28;5030940;28;20033;-64
2022/06/18 04:39:40;;;;;;;14.00;6.80;;;;;;;20.92;68.64;101597.16;5031786;28;20026;-64
2022/06/18 04:42:06;;;;;;;12.27;8.30;;;;;;;20.96;67.97;101603.75;5032167;28;20112;-64
2022/06/18 04:44:31;;;;;;;13.40;7.43;;;;;;;20.99;67.43;101595.13;5031950;28;20046;-64
2022/06/18 04:46:57;;;;;;;13.32;7.50;;;;;;;21.08;67.70;101603.66;5031848;28;20061;-64
2022/06/18 04:49:23;;;;;;;16.08;8.40;;;;;;;21.10;67.48;101609.66;5031365;28;20120;-64
2022/06/18 04:51:48;;;;;;;12.90;8.55;;;;;;;21.12;67.25;101608.34;5030921;28;20461;-64
2022/06/18 04:54:14;;;;;;;11.80;7.68;;;;;;;21.16;67.32;101605.94;5030490;28;20033;-64
2022/06/18 04:56:39;;;;;;;11.40;7.93;;;;;;;21.14;67.48;101595.34;5031803;28;20047;-64
2022/06/18 04:59:05;;;;;;;12.48;7.97;;;;;;;21.21;67.51;101614.97;5031961;28;20033;-64
2022/06/18 05:01:31;;;;;;;13.07;8.57;;;;;;;21.23;67.84;101609.31;5031610;28;20106;-65
2022/06/18 05:03:56;;;;;;;14.63;8.60;;;;;;;21.26;68.05;101610.69;5031682;28;20041;-64
2022/06/18 05:06:22;;;;;;;14.55;8.55;;;;;;;21.32;67.83;101615.13;5031565;28;20083;-64
2022/06/18 05:08:47;;;;;;;19.77;9.00;;;;;;;21.34;67.45;101611.09;5030974;28;20029;-64
2022/06/18 05:11:12;;;;;;;13.13;9.10;;;;;;;21.44;67.09;101605.81;5031524;28;20112;-64
2022/06/18 05:13:38;;;;;;;15.98;8.77;;;;;;;21.49;67.20;101621.38;5031370;28;20034;-64
2022/06/18 05:16:06;;;;;;;14.73;8.55;;;;;;;21.51;66.77;101621.94;5031408;28;20093;-64
2022/06/18 05:18:35;;;;;;;15.55;8.73;;;;;;;21.56;66.98;101613.03;5031434;28;20025;-64
2022/06/18 05:21:01;;;;;;;16.15;10.00;;;;;;;21.57;66.83;101615.50;5031450;28;20025;-64
2022/06/18 05:23:27;;;;;;;14.52;9.32;;;;;;;21.61;66.56;101621.25;5031284;28;20496;-64
2022/06/18 05:25:56;;;;;;;16.13;9.98;;;;;;;21.61;67.23;101621.25;5030440;28;20112;-64
2022/06/18 05:28:22;;;;;;;16.17;10.50;;;;;;;21.67;67.41;101622.97;5031227;28;20354;-64
2022/06/18 05:30:47;;;;;;;15.30;10.13;;;;;;;21.70;67.06;101627.06;5031163;28;20037;-64
2022/06/18 05:33:12;;;;;;;12.40;8.80;;;;;;;21.66;67.34;101624.03;5031120;28;20038;-63
2022/06/18 05:35:41;;;;;;;19.17;9.90;;;;;;;21.73;67.08;101627.38;5030894;28;20030;-64
2022/06/18 05:38:07;;;;;;;20.00;10.52;;;;;;;21.74;67.24;101628.19;5031078;28;20056;-64
2022/06/18 05:40:33;;;;;;;13.45;9.35;;;;;;;21.76;66.50;101617.91;5030407;28;20440;-64
2022/06/18 05:42:58;;;;;;;16.08;9.48;;;;;;;21.88;66.89;101624.03;5031003;28;20116;-64
2022/06/18 05:45:23;;;;;;;15.35;9.05;;;;;;;21.94;66.48;101627.63;5030844;28;20052;-64
2022/06/18 05:47:49;;;;;;;12.18;8.73;;;;;;;21.98;66.69;101636.91;5030708;28;20057;-64
2022/06/18 05:50:18;;;;;;;17.02;10.25;;;;;;;22.02;65.89;101638.03;5030510;28;20033;-64
2022/06/18 05:52:44;;;;;;;10.38;8.00;;;;;;;22.03;66.02;101642.38;5030021;28;20076;-64
2022/06/18 05:55:10;;;;;;;15.38;9.25;;;;;;;22.06;65.51;101644.59;5030685;28;20104;-64
2022/06/18 05:57:47;;;;;;;15.80;10.35;;;;;;;22.06;65.42;101639.16;5030708;28;20033;-64
2022/06/18 06:00:14;;;;;;;16.23;10.20;;;;;;;22.09;65.51;101634.06;5030555;28;20482;-64
2022/06/18 06:02:39;;;;;;;16.30;9.43;;;;;;;22.18;65.25;101642.56;5030531;28;20033;-64
2022/06/18 06:05:05;;;;;;;14.75;9.50;;;;;;;22.30;65.09;101639.75;5030488;28;20065;-64
2022/06/18 06:07:30;;;;;;;15.38;10.38;;;;;;;22.38;64.29;101635.75;5030527;28;20041;-64
2022/06/18 06:12:39;;;;;;;20.77;11.77;;;;;;;22.39;64.67;101623.78;5030655;28;20063;-64
2022/06/18 06:15:07;;;;;;;14.05;9.55;;;;;;;22.42;64.97;101628.72;5030286;28;20033;-64
2022/06/18 06:17:32;;;;;;;16.10;10.05;;;;;;;22.44;65.10;101618.41;5030322;28;20083;-64
2022/06/18 06:20:11;;;;;;;15.35;9.57;;;;;;;22.43;65.07;101620.31;5030289;28;20030;-64
2022/06/18 06:22:37;;;;;;;17.05;9.50;;;;;;;22.45;64.62;101612.72;5030273;28;20072;-64
2022/06/18 06:25:03;;;;;;;16.60;10.75;;;;;;;22.47;64.06;101615.97;5029803;28;20529;-64
2022/06/18 06:27:28;;;;;;;15.52;9.75;;;;;;;22.46;64.09;101608.09;5030039;28;20033;-64
2022/06/18 06:29:54;;;;;;;17.75;9.82;;;;;;;22.47;63.17;101615.97;5028689;28;20388;-64
2022/06/18 06:32:19;;;;;;;14.63;8.73;;;;;;;22.48;63.36;101619.53;5030099;28;20432;-64
2022/06/18 06:34:44;;;;;;;18.40;9.68;;;;;;;22.48;63.02;101614.91;5030021;28;20362;-64
2022/06/18 06:37:10;;;;;;;12.02;8.63;;;;;;;22.50;63.55;101625.53;5029740;28;20029;-64
2022/06/18 06:39:36;;;;;;;18.65;9.77;;;;;;;22.55;63.84;101625.56;5029880;28;20052;-64
2022/06/18 06:42:01;;;;;;;15.25;8.73;;;;;;;22.64;63.04;101618.59;5029441;28;20033;-64
2022/06/18 06:44:27;;;;;;;17.00;9.43;;;;;;;22.74;64.29;101617.84;5029732;28;20538;-64
2022/06/18 06:46:52;;;;;;;23.48;11.32;;;;;;;22.82;63.18;101619.25;5029611;28;20049;-64
2022/06/18 06:49:17;;;;;;;18.77;10.20;;;;;;;22.85;61.72;101610.59;5029704;28;20037;-64
2022/06/18 06:51:43;;;;;;;12.80;8.93;;;;;;;22.91;63.47;101623.16;5029793;28;20037;-64
2022/06/18 06:54:08;;;;;;;12.55;8.77;;;;;;;22.96;64.22;101626.75;5028890;28;20029;-64
2022/06/18 06:59:18;;;;;;;15.93;9.35;;;;;;;23.08;61.91;101618.44;5029973;28;20036;-64
2022/06/18 07:01:44;;;;;;;17.73;8.38;;;;;;;23.09;60.65;101619.25;5029686;28;20108;-64
2022/06/18 07:04:11;;;;;;;22.88;10.00;;;;;;;23.08;61.21;101614.88;5029549;28;20033;-64
2022/06/18 07:06:36;;;;;;;15.13;9.10;;;;;;;23.12;61.57;101621.44;5029428;28;20108;-64
2022/06/18 07:09:06;;;;;;;15.73;9.20;;;;;;;23.14;61.64;101622.81;5029384;28;20034;-63
2022/06/18 07:11:37;;;;;;;19.83;9.75;;;;;;;23.15;60.28;101612.75;5029423;28;20044;-64
2022/06/18 07:14:02;;;;;;;20.90;10.85;;;;;;;23.11;59.94;101620.63;5029289;28;20029;-64
2022/06/18 07:16:29;;;;;;;14.48;8.07;;;;;;;23.15;61.13;101621.72;5029395;28;20095;-64
2022/06/18 07:18:55;;;;;;;14.88;8.38;;;;;;;23.23;60.95;101622.31;5029378;28;20527;-64
2022/06/18 07:21:21;;;;;;;21.88;9.57;;;;;;;23.33;61.81;101625.09;5029255;28;20033;-64
2022/06/18 07:23:48;;;;;;;15.38;9.60;;;;;;;23.34;61.02;101619.41;5029265;28;20036;-64
2022/06/18 07:26:16;;;;;;;18.98;9.95;;;;;;;23.48;62.75;101622.47;5029222;28;20138;-64
2022/06/18 07:28:43;;;;;;;18.77;10.98;;;;;;;23.59;62.00;101623.34;5029055;28;20030;-65
2022/06/18 07:31:14;;;;;;;15.73;10.30;;;;;;;23.65;60.42;101629.63;5028980;28;20033;-65
2022/06/18 07:33:40;;;;;;;17.38;9.63;;;;;;;23.73;60.46;101623.69;5029269;28;20492;-66
2022/06/18 07:36:06;;;;;;;19.70;10.68;;;;;;;23.81;62.17;101617.72;5029036;28;20029;-66
2022/06/18 07:38:32;;;;;;;18.08;12.18;;;;;;;23.89;61.11;101611.75;5028941;28;20116;-66
2022/06/18 07:40:57;;;;;;;16.90;10.05;;;;;;;23.94;60.31;101609.06;5029084;28;20113;-66
2022/06/18 07:43:38;;;;;;;17.00;10.95;;;;;;;24.01;60.46;101614.25;5027574;28;20492;-66
2022/06/18 07:46:06;;;;;;;19.38;11.25;;;;;;;24.17;61.11;101613.22;5028972;28;20138;-66
2022/06/18 07:48:32;;;;;;;17.60;10.88;;;;;;;24.33;60.99;101611.31;5028931;28;20041;-66
2022/06/18 07:50:58;;;;;;;21.45;12.13;;;;;;;24.38;61.04;101614.06;5032869;28;20455;-65
2022/06/18 07:53:25;;;;;;;16.75;10.95;;;;;;;24.52;59.90;101608.09;5033006;28;20124;-65
2022/06/18 07:55:52;;;;;;;16.38;10.43;;;;;;;24.58;59.96;101604.31;5032546;28;20108;-65
2022/06/18 07:58:17;;;;;;;21.15;11.20;;;;;;;24.64;59.49;101605.94;5032780;28;20025;-65
2022/06/18 08:00:43;;;;;;;26.55;10.95;;;;;;;24.71;57.94;101604.56;5032948;28;20826;-65
2022/06/18 08:03:12;;;;;;;19.48;10.70;;;;;;;24.87;59.55;101602.66;5032864;28;20041;-65
2022/06/18 08:05:38;;;;;;;16.27;9.18;;;;;;;25.11;56.36;101597.41;5032852;28;20044;-65
2022/06/18 08:08:04;;;;;;;15.65;9.10;;;;;;;25.53;55.95;101601.69;5032744;28;20941;-65
2022/06/18 08:10:31;;;;;;;20.92;11.70;;;;;;;25.93;55.35;101599.09;5032627;28;20069;-65
2022/06/18 08:12:56;;;;;;;13.93;9.82;;;;;;;26.09;54.15;101595.16;5032636;28;20048;-65
2022/06/18 08:15:22;;;;;;;20.02;9.57;;;;;;;26.49;55.34;101590.50;5032414;28;20350;-65
2022/06/18 08:17:47;;;;;;;20.40;10.52;;;;;;;27.44;52.16;101591.81;5032448;28;20179;-65
2022/06/18 08:20:13;;;;;;;19.70;9.23;;;;;;;28.54;48.88;101583.41;5032536;28;20026;-65
2022/06/18 08:22:42;;;;;;;18.65;8.77;;;;;;;29.50;45.86;101579.16;5032476;28;20354;-65
2022/06/18 08:25:10;;;;;;;15.52;8.60;;;;;;;30.30;44.19;101579.63;5032435;28;20480;-65
2022/06/18 08:27:36;;;;;;;17.85;9.27;;;;;;;31.12;41.78;101577.50;5032470;28;20033;-65
2022/06/18 08:30:03;;;;;;;14.15;9.10;;;;;;;31.84;40.51;101585.31;5032378;28;20962;-65
2022/06/18 08:32:29;;;;;;;18.08;8.68;;;;;;;32.50;40.22;101573.34;5032304;28;20037;-65
2022/06/18 08:34:54;;;;;;;15.53;8.43;;;;;;;32.99;40.79;101575.75;5032219;28;20125;-65
2022/06/18 08:37:19;;;;;;;13.48;7.65;;;;;;;33.48;36.95;101571.47;5032259;28;20278;-64
2022/06/18 08:39:45;;;;;;;13.75;8.63;;;;;;;33.44;35.52;101564.19;5032289;28;20368;-65
2022/06/18 08:42:39;;;;;;;13.90;7.82;;;;;;;33.51;38.53;101570.81;5032104;28;20141;-65
2022/06/18 08:45:22;;;;;;;13.20;8.35;;;;;;;33.72;36.83;101581.09;5031883;28;20033;-65
2022/06/18 08:48:06;;;;;;;12.70;7.47;;;;;;;33.90;35.52;101570.69;5031893;28;20046;-65
2022/06/18 08:50:56;;;;;;;17.73;7.78;;;;;;;34.24;36.87;101581.53;5031771;28;20041;-65
2022/06/18 08:53:51;;;;;;;15.13;8.05;;;;;;;34.21;35.77;101575.84;5031896;28;20021;-65
2022/06/18 08:56:43;;;;;;;22.63;9.07;;;;;;;34.28;36.90;101573.34;5031664;28;20045;-65
2022/06/18 08:59:19;;;;;;;16.77;8.02;;;;;;;34.59;35.34;101575.66;5031259;28;20017;-66
2022/06/18 09:02:18;;;;;;;10.93;7.25;;;;;;;34.96;35.48;101580.44;5028322;28;20029;-65
2022/06/18 09:05:21;;;;;;;13.27;7.40;;;;;;;34.89;35.26;101578.22;5029712;28;20397;-65
2022/06/18 09:08:07;;;;;;;17.35;7.18;;;;;;;34.03;36.38;101586.22;5031588;28;20030;-65
2022/06/18 09:11:00;;;;;;;12.90;8.00;;;;;;;32.69;38.57;101576.50;5031608;28;20033;-66
2022/06/18 09:13:57;;;;;;;13.55;8.10;;;;;;;31.63;40.31;101576.88;5031449;28;20113;-65
2022/06/18 09:16:28;;;;;;;14.80;7.53;;;;;;;30.73;42.01;101576.31;5030129;28;20037;-65
2022/06/18 09:18:55;;;;;;;12.77;6.25;;;;;;;30.21;41.11;101589.72;5031460;28;20424;-65
2022/06/18 09:21:30;;;;;;;16.83;7.35;;;;;;;29.76;43.49;101584.94;5031342;28;20085;-65
2022/06/18 09:24:04;;;;;;;15.77;8.15;;;;;;;29.41;43.42;101586.50;5031436;28;20112;-66
2022/06/18 09:26:41;;;;;;;13.55;8.07;;;;;;;29.31;45.30;101584.78;5031357;28;20100;-65
2022/06/18 09:29:10;;;;;;;13.45;6.97;;;;;;;29.23;45.04;101582.75;5031113;28;20507;-65
2022/06/18 09:31:42;;;;;;;12.95;6.68;;;;;;;29.11;45.59;101583.25;5031488;28;20393;-65
2022/06/18 09:34:18;;;;;;;20.13;8.63;;;;;;;29.08;45.46;101583.84;5031214;28;20030;-65
2022/06/18 09:36:49;;;;;;;19.77;8.73;;;;;;;29.02;45.03;101576.78;5031229;28;20040;-65
2022/06/18 09:39:24;;;;;;;15.00;9.23;;;;;;;28.78;46.41;101583.28;5031069;28;20056;-65
2022/06/18 09:42:23;;;;;;;15.65;8.52;;;;;;;28.71;47.35;101577.34;5030855;28;20057;-65
2022/06/18 09:45:15;;;;;;;13.00;8.50;;;;;;;28.80;47.23;101567.31;5030949;28;20392;-65
2022/06/18 09:47:46;;;;;;;16.10;7.63;;;;;;;28.83;49.36;101568.66;5030264;28;20053;-65
2022/06/18 09:50:33;;;;;;;15.88;8.15;;;;;;;28.76;47.43;101560.78;5030925;28;20120;-66
2022/06/18 09:53:19;;;;;;;14.00;7.72;;;;;;;28.83;48.14;101563.97;5030530;28;20108;-65
2022/06/18 09:55:50;;;;;;;14.30;8.48;;;;;;;28.80;47.34;101558.28;5030909;28;20938;-65
2022/06/18 09:58:40;;;;;;;16.08;8.07;;;;;;;28.81;47.61;101560.69;5030619;28;20029;-65
2022/06/18 10:01:08;;;;;;;17.80;9.98;;;;;;;28.80;47.88;101553.59;5025705;28;20037;-65
2022/06/18 10:09:10;;;;;;;12.13;6.43;;;;;;;28.90;46.87;101549.84;5030467;28;20712;-65
2022/06/18 10:11:37;;;;;;;11.85;7.38;;;;;;;28.92;46.56;101542.09;5030021;28;20029;-65
2022/06/18 10:14:16;;;;;;;13.40;6.47;;;;;;;29.00;48.76;101540.56;5030395;28;20033;-65
2022/06/18 10:16:57;;;;;;;14.80;6.55;;;;;;;29.03;47.32;101540.78;5030292;28;20045;-65
2022/06/18 10:19:34;;;;;;;11.88;7.20;;;;;;;29.00;46.93;101543.31;5030435;28;20104;-65
2022/06/18 10:22:05;;;;;;;12.55;6.70;;;;;;;29.00;47.07;101546.91;5030128;28;20033;-65
2022/06/18 10:24:33;;;;;;;20.08;6.28;;;;;;;29.06;47.16;101544.91;5030182;28;20476;-65
2022/06/18 10:27:08;;;;;;;13.57;6.40;;;;;;;29.07;45.87;101548.44;5030236;28;20083;-65
2022/06/18 10:29:58;;;;;;;14.15;7.55;;;;;;;29.11;46.23;101550.28;5029627;28;20063;-65
2022/06/18 10:32:29;;;;;;;13.55;6.00;;;;;;;29.18;47.47;101541.63;5030053;28;20025;-65
2022/06/18 10:35:12;;;;;;;15.13;7.80;;;;;;;29.18;46.16;101541.63;5030015;28;20033;-65
2022/06/18 10:37:53;;;;;;;16.30;7.55;;;;;;;29.08;46.49;101541.81;5029964;28;20036;-65
2022/06/18 10:40:34;;;;;;;17.88;9.68;;;;;;;29.02;46.60;101535.59;5030073;28;20041;-65
2022/06/18 10:43:19;;;;;;;20.42;8.38;;;;;;;29.14;47.52;101535.94;5029917;28;20507;-66
2022/06/18 10:45:59;;;;;;;14.73;7.55;;;;;;;29.30;47.00;101530.94;5029779;28;20037;-66
2022/06/18 10:48:28;;;;;;;16.03;8.57;;;;;;;29.35;46.93;101530.03;5029333;28;20140;-66
2022/06/18 10:50:58;;;;;;;16.85;7.78;;;;;;;29.45;47.33;101529.81;5029267;28;20080;-66
2022/06/18 10:53:27;;;;;;;38.72;10.70;;;;;;;29.55;47.84;101526.81;5029718;28;20028;-66
2022/06/18 10:56:13;;;;;;;18.52;8.73;;;;;;;29.66;49.13;101516.47;5029454;28;20155;-66
2022/06/18 10:58:54;;;;;;;15.10;6.93;;;;;;;29.75;46.52;101516.53;5029259;28;20025;-66
2022/06/18 11:01:34;;;;;;;;;;;;;;;29.81;47.88;101516.09;5029670;28;20033;-66
2022/06/18 11:04:05;;;;;;;14.68;7.97;;;;;;;29.69;46.00;101505.66;5029180;28;19912;-66
2022/06/18 11:06:31;;;;;;;21.10;7.80;;;;;;;29.78;45.40;101504.91;5029546;28;20029;-66
2022/06/18 11:09:01;;;;;;;14.43;8.55;;;;;;;29.80;45.07;101508.97;5029340;28;20108;-66
2022/06/18 11:11:30;;;;;;;13.60;6.95;;;;;;;29.88;46.79;101501.91;5029563;28;20132;-66
2022/06/18 11:13:55;;;;;;;17.35;7.63;;;;;;;29.93;45.40;101504.53;5029465;28;20080;-67
2022/06/18 11:16:25;;;;;;;11.43;7.32;;;;;;;29.95;46.17;101505.06;5029253;28;20038;-66
2022/06/18 11:18:59;;;;;;;15.23;6.97;;;;;;;29.98;45.53;101504.41;5029404;28;20022;-67
2022/06/18 11:21:44;;;;;;;11.68;6.75;;;;;;;30.01;44.46;101484.53;5029360;28;20028;-66
2022/06/18 11:24:13;;;;;;;11.80;7.60;;;;;;;30.01;44.61;101497.47;5028642;28;20026;-66
2022/06/18 11:27:02;;;;;;;13.82;6.13;;;;;;;30.04;45.40;101485.84;5029271;28;20091;-66
2022/06/18 11:29:27;;;;;;;17.35;7.15;;;;;;;30.10;45.48;101482.66;5029049;28;20036;-66
2022/06/18 11:31:56;;;;;;;13.10;6.97;;;;;;;30.11;44.07;101484.28;5029141;28;20113;-66
2022/06/18 11:34:34;;;;;;;13.65;7.30;;;;;;;30.11;44.18;101476.03;5029236;28;20282;-66
2022/06/18 11:37:10;;;;;;;11.23;7.00;;;;;;;30.11;45.59;101464.22;5029020;28;20029;-66
2022/06/18 11:39:39;;;;;;;13.85;6.50;;;;;;;30.12;44.93;101455.63;5029171;28;20025;-66
2022/06/18 11:42:08;;;;;;;11.95;5.78;;;;;;;30.26;48.45;101463.03;5029191;28;20036;-66
2022/06/18 11:44:50;;;;;;;13.77;6.32;;;;;;;30.42;45.67;101452.41;5029035;28;20025;-66
2022/06/18 11:47:22;;;;;;;13.20;7.15;;;;;;;30.41;44.83;101446.09;5028933;28;20049;-66
2022/06/18 11:50:00;;;;;;;11.15;6.07;;;;;;;30.40;43.26;101451.94;5028750;28;20659;-66
2022/06/18 11:52:46;;;;;;;11.60;6.75;;;;;;;30.29;45.56;101452.22;5028378;28;20018;-66